Aroya, Colorado
Current Conditions -  °F | °C
As of 4:55 AM on Friday 31 Oct 2014 (Local Time) from KLIC Reporting Station
Clear Clear  
Wind Chill: 25°   Ceiling: Unl
Heat Index: 25°   Visibility: 10mi
Dew Point: 21°   Wind: 3mph
Humidity: 85%   Direction: 160°SSE
Pressure: 30.41"   Gusts: NA
Location:  38.8543°N, 103.125°W
Report Text: KLIC 311055Z AUTO 16003KT 10SM CLR M04/M06 A3041 RMK AO2 SLP288 T10391061
Loading
Personal Weather Stations






























Interactive Weather Map New forecast layout! Learn more

10-Day Weather Forecast

Advertisements
Track Severe Weather on mobile